createdAt,value
2019-04-03T00:00:39.583Z,11
2019-04-03T00:01:48.980Z,11
2019-04-03T00:02:58.451Z,11
2019-04-03T00:04:07.750Z,11.1
2019-04-03T00:05:17.159Z,11.1
2019-04-03T00:06:26.579Z,11.1
2019-04-03T00:07:36.196Z,11.1
2019-04-03T00:08:45.385Z,11.2
2019-04-03T00:09:54.737Z,11.1
2019-04-03T00:11:04.144Z,11.2
2019-04-03T00:12:13.539Z,11.1
2019-04-03T00:13:22.962Z,11.1
2019-04-03T00:14:32.328Z,11.1
2019-04-03T00:15:42.763Z,11.1
2019-04-03T00:16:51.226Z,11.1
2019-04-03T00:18:01.641Z,11.1
2019-04-03T00:19:10.974Z,11.2
2019-04-03T00:20:20.562Z,11.1
2019-04-03T00:21:29.784Z,11.2
2019-04-03T00:22:39.192Z,11.3
2019-04-03T00:23:48.624Z,11.3
2019-04-03T00:24:57.962Z,11.3
2019-04-03T00:26:07.608Z,11.3
2019-04-03T00:27:16.900Z,11.3
2019-04-03T00:28:26.178Z,11.3
2019-04-03T00:29:35.566Z,11.3
2019-04-03T00:30:45.022Z,11.3
2019-04-03T00:31:54.816Z,11.2
2019-04-03T00:33:03.776Z,11.3
2019-04-03T00:34:13.159Z,11.3
2019-04-03T00:35:23.480Z,11.2
2019-04-03T00:36:32.120Z,11.1
2019-04-03T00:37:41.608Z,11.1
2019-04-03T00:38:50.901Z,11.2
2019-04-03T00:40:00.274Z,11.1
2019-04-03T00:41:09.565Z,11.1
2019-04-03T00:42:18.976Z,11.1
2019-04-03T00:43:28.350Z,11.2
2019-04-03T00:44:37.785Z,11.2
2019-04-03T00:45:47.176Z,11.2
2019-04-03T00:46:56.537Z,11.1
2019-04-03T00:48:05.942Z,11.2
2019-04-03T00:49:15.333Z,11.1
2019-04-03T00:50:26.118Z,11.1
2019-04-03T00:51:34.293Z,11
2019-04-03T00:52:43.546Z,11
2019-04-03T00:53:52.923Z,11
2019-04-03T00:55:02.339Z,11
2019-04-03T00:56:11.719Z,11
2019-04-03T00:57:21.148Z,11
2019-04-03T00:58:30.524Z,11
2019-04-03T00:59:40.020Z,11
2019-04-03T01:00:49.360Z,11
2019-04-03T01:01:58.772Z,11
2019-04-03T01:03:08.137Z,10.9
2019-04-03T01:04:17.734Z,10.9
2019-04-03T01:05:28.461Z,11
2019-04-03T01:06:36.502Z,11
2019-04-03T01:07:45.686Z,10.9
2019-04-03T01:08:55.193Z,10.9
2019-04-03T01:10:04.493Z,10.9
2019-04-03T01:11:13.922Z,10.9
2019-04-03T01:12:23.271Z,10.8
2019-04-03T01:13:32.673Z,10.9
2019-04-03T01:14:43.322Z,10.9
2019-04-03T01:15:52.587Z,10.9
2019-04-03T01:17:04.029Z,11
2019-04-03T01:18:11.371Z,10.9
2019-04-03T01:19:20.772Z,10.9
2019-04-03T01:20:30.163Z,10.9
2019-04-03T01:21:39.553Z,10.9
2019-04-03T01:22:48.974Z,10.8
2019-04-03T01:23:58.344Z,10.8
2019-04-03T01:25:08.739Z,10.8
2019-04-03T01:26:17.136Z,10.8
2019-04-03T01:27:26.548Z,10.8
2019-04-03T01:28:36.224Z,10.8
2019-04-03T01:29:45.319Z,10.8
2019-04-03T01:30:54.785Z,10.8
2019-04-03T01:32:04.086Z,10.7
2019-04-03T01:33:14.807Z,10.6
2019-04-03T01:34:22.843Z,10.6
2019-04-03T01:35:32.241Z,10.6
2019-04-03T01:36:42.158Z,10.7
2019-04-03T01:37:51.029Z,10.7
2019-04-03T01:39:00.475Z,10.6
2019-04-03T01:40:10.874Z,10.6
2019-04-03T01:41:20.997Z,10.6
2019-04-03T01:42:29.637Z,10.5
2019-04-03T01:43:39.036Z,10.6
2019-04-03T01:44:48.427Z,10.5
2019-04-03T01:45:57.788Z,10.6
2019-04-03T01:47:07.168Z,10.6
2019-04-03T01:48:16.607Z,10.6
2019-04-03T01:49:28.025Z,10.5
2019-04-03T01:50:35.415Z,10.5
2019-04-03T01:51:45.011Z,10.5
2019-04-03T01:52:54.190Z,10.5
2019-04-03T01:54:03.685Z,10.5
2019-04-03T01:55:12.866Z,10.5
2019-04-03T01:56:22.407Z,10.5
2019-04-03T01:57:31.639Z,10.5
2019-04-03T01:58:41.032Z,10.5
2019-04-03T01:59:50.536Z,10.5
2019-04-03T02:00:59.781Z,10.4
2019-04-03T02:02:09.219Z,10.5
2019-04-03T02:03:18.612Z,10.4
2019-04-03T02:04:27.970Z,10.5
2019-04-03T02:05:38.523Z,10.5
2019-04-03T02:06:48.052Z,10.5
2019-04-03T02:07:57.286Z,10.4
2019-04-03T02:09:06.839Z,10.5
2019-04-03T02:10:17.630Z,10.4
2019-04-03T02:11:25.433Z,10.4
2019-04-03T02:12:34.804Z,10.3
2019-04-03T02:13:44.362Z,10.3
2019-04-03T02:14:53.809Z,10.3
2019-04-03T02:16:03.006Z,10.5
2019-04-03T02:17:12.501Z,10.4
2019-04-03T02:18:21.888Z,10.4
2019-04-03T02:19:31.136Z,10.4
2019-04-03T02:20:41.178Z,10.3
2019-04-03T02:21:49.905Z,10.4
2019-04-03T02:23:00.227Z,10.4
2019-04-03T02:24:08.615Z,10.4
2019-04-03T02:25:18.036Z,10.3
2019-04-03T02:26:27.513Z,10.4
2019-04-03T02:27:36.815Z,10.4
2019-04-03T02:28:46.293Z,10.4
2019-04-03T02:29:55.497Z,10.3
2019-04-03T02:31:04.986Z,10.2
2019-04-03T02:32:14.269Z,10.2
2019-04-03T02:33:23.702Z,10.3
2019-04-03T02:34:34.415Z,10.3
2019-04-03T02:35:42.444Z,10.3
2019-04-03T02:36:51.835Z,10.3
2019-04-03T02:38:01.444Z,10.3
2019-04-03T02:39:10.662Z,10.3
2019-04-03T02:40:19.981Z,10.2
2019-04-03T02:41:29.323Z,10.2
2019-04-03T02:42:41.189Z,10.3
2019-04-03T02:43:48.396Z,10.3
2019-04-03T02:44:57.513Z,10.3
2019-04-03T02:46:06.769Z,10.3
2019-04-03T02:47:16.207Z,10.3
2019-04-03T02:48:25.542Z,10.3
2019-04-03T02:49:35.114Z,10.2
2019-04-03T02:50:46.491Z,10.2
2019-04-03T02:51:53.850Z,10.2
2019-04-03T02:53:03.119Z,10.2
2019-04-03T02:54:12.457Z,10.2
2019-04-03T02:55:21.825Z,10.2
2019-04-03T02:56:31.275Z,10.1
2019-04-03T02:57:40.655Z,10.1
2019-04-03T02:58:51.368Z,10.1
2019-04-03T03:00:00.318Z,10.1
2019-04-03T03:01:08.651Z,10.1
2019-04-03T03:02:18.086Z,10.1
2019-04-03T03:03:27.392Z,10
2019-04-03T03:04:36.970Z,10
2019-04-03T03:05:46.187Z,10
2019-04-03T03:06:55.515Z,10
2019-04-03T03:08:07.964Z,10
2019-04-03T03:09:14.540Z,10
2019-04-03T03:10:23.650Z,10
2019-04-03T03:11:33.103Z,10
2019-04-03T03:12:42.360Z,10
2019-04-03T03:13:51.735Z,9.9
2019-04-03T03:15:01.380Z,9.9
2019-04-03T03:16:10.535Z,9.9
2019-04-03T03:17:22.413Z,9.9
2019-04-03T03:18:29.212Z,9.9
2019-04-03T03:19:38.654Z,9.9
2019-04-03T03:20:47.975Z,9.9
2019-04-03T03:21:57.319Z,9.9
2019-04-03T03:23:06.759Z,9.9
2019-04-03T03:24:16.467Z,9.9
2019-04-03T03:25:25.425Z,9.9
2019-04-03T03:26:37.149Z,9.9
2019-04-03T03:27:44.201Z,9.9
2019-04-03T03:28:53.549Z,9.9
2019-04-03T03:30:18.885Z,9.9
2019-04-03T03:31:12.642Z,9.9
2019-04-03T03:32:28.754Z,9.8
2019-04-03T03:33:35.393Z,9.8
2019-04-03T03:34:52.656Z,9.7
2019-04-03T03:35:50.547Z,9.7
2019-04-03T03:37:01.711Z,9.7
2019-04-03T03:38:08.519Z,9.7
2019-04-03T03:39:18.269Z,9.7
2019-04-03T03:40:27.199Z,9.7
2019-04-03T03:41:36.680Z,9.7
2019-04-03T03:42:46.131Z,9.7
2019-04-03T03:45:04.642Z,9.7
2019-04-03T03:46:13.995Z,9.7
2019-04-03T03:47:23.606Z,9.6
2019-04-03T03:48:32.899Z,9.6
2019-04-03T03:49:42.071Z,9.6
2019-04-03T03:50:55.455Z,9.6
2019-04-03T03:52:03.870Z,9.6
2019-04-03T03:53:11.359Z,9.6
2019-04-03T03:54:19.589Z,9.5
2019-04-03T03:55:28.910Z,9.5
2019-04-03T03:56:38.244Z,9.5
2019-04-03T03:57:47.592Z,9.5
2019-04-03T03:58:56.962Z,9.5
2019-04-03T04:00:06.385Z,9.5
2019-04-03T04:01:15.686Z,9.5
2019-04-03T04:02:25.071Z,9.5
2019-04-03T04:03:34.587Z,9.5
2019-04-03T04:04:46.476Z,9.5
2019-04-03T04:05:55.266Z,9.5
2019-04-03T04:07:03.826Z,9.5
2019-04-03T04:08:12.442Z,9.4
2019-04-03T04:09:21.358Z,9.5
2019-04-03T04:10:34.923Z,9.4
2019-04-03T04:11:39.935Z,9.4
2019-04-03T04:12:49.279Z,9.4
2019-04-03T04:13:58.622Z,9.5
2019-04-03T04:15:08.003Z,9.4
2019-04-03T04:16:17.478Z,9.4
2019-04-03T04:17:26.764Z,9.4
2019-04-03T04:18:36.136Z,9.4
2019-04-03T04:19:45.398Z,9.5
2019-04-03T04:20:54.846Z,9.4
2019-04-03T04:22:04.163Z,9.4
2019-04-03T04:23:13.754Z,9.4
2019-04-03T04:24:22.819Z,9.4
2019-04-03T04:25:32.170Z,9.4
2019-04-03T04:26:41.660Z,9.4
2019-04-03T04:27:50.968Z,9.3
2019-04-03T04:29:00.240Z,9.3
2019-04-03T04:30:11.931Z,9.4
2019-04-03T04:31:18.949Z,9.4
2019-04-03T04:32:28.300Z,9.3
2019-04-03T04:33:37.667Z,9.4
2019-04-03T04:34:49.166Z,9.4
2019-04-03T04:35:56.443Z,9.4
2019-04-03T04:37:07.423Z,9.3
2019-04-03T04:38:15.173Z,9.4
2019-04-03T04:39:26.573Z,9.3
2019-04-03T04:40:35.031Z,9.4
2019-04-03T04:41:44.393Z,9.3
2019-04-03T04:42:53.750Z,9.3
2019-04-03T04:44:03.037Z,9.3
2019-04-03T04:46:21.740Z,9.3
2019-04-03T04:47:31.292Z,9.3
2019-04-03T04:48:40.450Z,9.3
2019-04-03T04:49:49.990Z,9.3
2019-04-03T04:50:59.305Z,9.3
2019-04-03T04:52:08.557Z,9.3
2019-04-03T04:53:17.873Z,9.3
2019-04-03T04:54:27.239Z,9.3
2019-04-03T04:55:36.623Z,9.3
2019-04-03T04:56:45.951Z,9.3
2019-04-03T04:57:55.384Z,9.3
2019-04-03T04:59:04.810Z,9.3
2019-04-03T05:00:15.574Z,9.3
2019-04-03T05:01:23.411Z,9.3
2019-04-03T05:02:32.714Z,9.3
2019-04-03T05:03:42.129Z,9.3
2019-04-03T05:04:51.495Z,9.3
2019-04-03T05:06:00.923Z,9.3
2019-04-03T05:07:10.124Z,9.3
2019-04-03T05:08:19.509Z,9.3
2019-04-03T05:09:28.843Z,9.4
2019-04-03T05:10:38.423Z,9.4
2019-04-03T05:11:47.565Z,9.5
2019-04-03T05:12:57.079Z,9.5
2019-04-03T05:14:06.327Z,9.5
2019-04-03T05:15:15.686Z,9.4
2019-04-03T05:16:25.603Z,9.4
2019-04-03T05:17:34.395Z,9.4
2019-04-03T05:18:43.698Z,9.4
2019-04-03T05:19:53.072Z,9.4
2019-04-03T05:21:02.419Z,9.4
2019-04-03T05:22:11.779Z,9.4
2019-04-03T05:23:21.118Z,9.4
2019-04-03T05:24:30.475Z,9.4
2019-04-03T05:25:39.987Z,9.4
2019-04-03T05:26:49.420Z,9.4
2019-04-03T05:27:58.594Z,9.4
2019-04-03T05:29:07.927Z,9.4
2019-04-03T05:30:17.262Z,9.4
2019-04-03T05:31:26.634Z,9.4
2019-04-03T05:32:35.978Z,9.4
2019-04-03T05:33:45.351Z,9.4
2019-04-03T05:34:54.727Z,9.4
2019-04-03T05:36:04.130Z,9.4
2019-04-03T05:37:13.436Z,9.4
2019-04-03T05:38:22.786Z,9.4
2019-04-03T05:39:32.397Z,9.4
2019-04-03T05:40:41.507Z,9.4
2019-04-03T05:41:50.982Z,9.4
2019-04-03T05:43:00.352Z,9.4
2019-04-03T05:44:09.591Z,9.4
2019-04-03T05:45:19.065Z,9.4
2019-04-03T05:46:28.347Z,9.4
2019-04-03T05:47:39.172Z,9.4
2019-04-03T05:48:47.969Z,9.3
2019-04-03T05:49:56.511Z,9.4
2019-04-03T05:51:05.751Z,9.4
2019-04-03T05:52:15.217Z,9.5
2019-04-03T05:53:24.578Z,9.5
2019-04-03T05:54:33.844Z,9.6
2019-04-03T05:55:43.275Z,9.6
2019-04-03T05:56:52.580Z,9.6
2019-04-03T05:58:01.956Z,9.7
2019-04-03T05:59:12.662Z,9.6
2019-04-03T06:00:21.914Z,9.6
2019-04-03T06:01:31.356Z,9.8
2019-04-03T06:02:40.603Z,9.8
2019-04-03T06:03:49.911Z,9.7
2019-04-03T06:04:59.284Z,9.6
2019-04-03T06:06:08.647Z,9.7
2019-04-03T06:07:18.888Z,9.7
2019-04-03T06:08:27.419Z,9.7
2019-04-03T06:09:36.772Z,9.7
2019-04-03T06:10:46.159Z,9.6
2019-04-03T06:11:55.529Z,9.7
2019-04-03T06:13:05.728Z,9.7
2019-04-03T06:14:14.284Z,9.7
2019-04-03T06:15:23.664Z,9.7
2019-04-03T06:16:33.220Z,9.7
2019-04-03T06:17:42.431Z,9.8
2019-04-03T06:18:52.073Z,10
2019-04-03T06:20:02.203Z,9.9
2019-04-03T06:21:10.743Z,9.9
2019-04-03T06:22:21.459Z,10.2
2019-04-03T06:23:29.738Z,10.3
2019-04-03T06:24:39.030Z,10.3
2019-04-03T06:25:48.164Z,10.3
2019-04-03T06:26:57.591Z,10.4
2019-04-03T06:28:07.014Z,10.1
2019-04-03T06:29:16.878Z,10.4
2019-04-03T06:30:26.057Z,10.5
2019-04-03T06:31:35.383Z,10.9
2019-04-03T06:32:44.657Z,11.1
2019-04-03T06:33:54.063Z,11.1
2019-04-03T06:35:03.783Z,10.9
2019-04-03T06:36:12.918Z,11.5
2019-04-03T06:37:22.748Z,11.1
2019-04-03T06:38:31.718Z,10.9
2019-04-03T06:39:41.133Z,10.8
2019-04-03T06:40:50.715Z,10.9
2019-04-03T06:42:00.066Z,10.6
2019-04-03T06:43:09.545Z,10.4
2019-04-03T06:44:20.255Z,10.6
2019-04-03T06:45:28.571Z,10.5
2019-04-03T06:46:37.893Z,10.5
2019-04-03T06:47:47.156Z,10.7
2019-04-03T06:48:56.593Z,10.7
2019-04-03T06:50:06.065Z,10.8
2019-04-03T06:51:16.070Z,11
2019-04-03T06:52:25.448Z,10.4
2019-04-03T06:53:34.775Z,10.7
2019-04-03T06:54:44.579Z,10.9
2019-04-03T06:55:53.266Z,11
2019-04-03T06:57:02.714Z,10.9
2019-04-03T06:58:12.382Z,10.5
2019-04-03T06:59:21.690Z,11.1
2019-04-03T07:00:31.063Z,11.5
2019-04-03T07:01:40.690Z,11.4
2019-04-03T07:02:49.946Z,10.9
2019-04-03T07:03:59.558Z,11
2019-04-03T07:05:10.164Z,10.7
2019-04-03T07:06:18.533Z,10.8
2019-04-03T07:07:33.697Z,11.2
2019-04-03T07:08:39.567Z,11.4
2019-04-03T07:09:46.689Z,12
2019-04-03T07:12:05.894Z,11.3
2019-04-03T07:13:15.404Z,11.5
2019-04-03T07:14:26.522Z,11.3
2019-04-03T07:15:34.111Z,12.2
2019-04-03T07:16:43.528Z,12.2
2019-04-03T07:19:02.521Z,11.5
2019-04-03T07:20:14.093Z,11.7
2019-04-03T07:21:22.711Z,11.5
2019-04-03T07:22:31.222Z,11.7
2019-04-03T07:23:40.451Z,12
2019-04-03T07:24:49.948Z,11.9
2019-04-03T07:25:59.370Z,11.6
2019-04-03T07:27:09.154Z,11.6
2019-04-03T07:28:18.351Z,11.4
2019-04-03T07:29:27.839Z,11.6
2019-04-03T07:30:37.320Z,11.8
2019-04-03T07:31:47.029Z,11.9
2019-04-03T07:32:57.683Z,12.4
2019-04-03T07:34:05.996Z,12
2019-04-03T07:35:15.249Z,12.3
2019-04-03T07:36:24.816Z,11.7
2019-04-03T07:37:34.295Z,11.9
2019-04-03T07:38:43.753Z,12
2019-04-03T07:39:53.275Z,12.2
2019-04-03T07:41:02.940Z,12.2
2019-04-03T07:42:12.321Z,11.9
2019-04-03T07:43:21.722Z,12.3
2019-04-03T07:44:31.575Z,12.5
2019-04-03T07:45:40.702Z,12.7
2019-04-03T07:46:50.292Z,12.5
2019-04-03T07:48:00.033Z,12
2019-04-03T07:49:09.842Z,12.1
2019-04-03T07:50:18.881Z,12.5
2019-04-03T07:51:28.539Z,12.2
2019-04-03T07:52:38.158Z,12.7
2019-04-03T07:53:48.813Z,12.3
2019-04-03T07:54:57.495Z,12.8
2019-04-03T07:56:06.683Z,12.7
2019-04-03T07:57:16.350Z,12.5
2019-04-03T07:58:25.786Z,13
2019-04-03T07:59:35.136Z,13
2019-04-03T08:00:44.674Z,12.4
2019-04-03T08:01:54.324Z,13.2
2019-04-03T08:03:03.771Z,13.1
2019-04-03T08:04:15.740Z,13.5
2019-04-03T08:05:22.749Z,13.3
2019-04-03T08:06:32.972Z,12.8
2019-04-03T08:07:41.783Z,12.8
2019-04-03T08:09:05.537Z,13
2019-04-03T08:10:00.901Z,13.5
2019-04-03T08:11:10.419Z,13.3
2019-04-03T08:12:19.983Z,12.8
2019-04-03T08:13:29.633Z,13
2019-04-03T08:14:41.093Z,12.9
2019-04-03T08:15:48.828Z,13.3
2019-04-03T08:16:58.558Z,14.3
2019-04-03T08:18:07.767Z,14.4
2019-04-03T08:19:17.879Z,13.8
2019-04-03T08:20:27.093Z,13.5
2019-04-03T08:21:36.637Z,14.7
2019-04-03T08:22:46.145Z,15.2
2019-04-03T08:23:56.068Z,14.3
2019-04-03T08:25:05.537Z,14.2
2019-04-03T08:26:18.335Z,14.6
2019-04-03T08:27:24.855Z,13.8
2019-04-03T08:28:34.353Z,13.8
2019-04-03T08:29:43.837Z,13.8
2019-04-03T08:30:53.789Z,13.9
2019-04-03T08:32:03.095Z,14.4
2019-04-03T08:33:16.994Z,13.5
2019-04-03T08:34:22.437Z,14.8
2019-04-03T08:35:32.777Z,15.2
2019-04-03T08:36:41.703Z,15.3
2019-04-03T08:37:51.442Z,15.4
2019-04-03T08:39:01.463Z,16.1
2019-04-03T08:40:10.747Z,15.5
2019-04-03T08:41:21.739Z,14.3
2019-04-03T08:42:32.232Z,14.6
2019-04-03T08:43:40.045Z,14.3
2019-04-03T08:44:49.472Z,14.9
2019-04-03T08:45:59.061Z,14.9
2019-04-03T08:47:08.744Z,15.1
2019-04-03T08:48:18.783Z,14.8
2019-04-03T08:49:28.486Z,14.7
2019-04-03T08:51:47.696Z,15.2
2019-04-03T08:52:57.193Z,16
2019-04-03T08:54:09.424Z,16
2019-04-03T08:55:16.653Z,14.7
2019-04-03T08:56:26.400Z,14.4
2019-04-03T08:57:36.046Z,15.2
2019-04-03T08:58:45.982Z,15.1
2019-04-03T08:59:55.527Z,15
2019-04-03T09:01:05.572Z,14.6
2019-04-03T09:02:14.950Z,15.6
2019-04-03T09:03:24.478Z,14.9
2019-04-03T09:04:34.127Z,14.7
2019-04-03T09:05:43.832Z,15.4
2019-04-03T09:06:54.610Z,15.3
2019-04-03T09:08:03.257Z,15.4
2019-04-03T09:09:13.049Z,15.2
2019-04-03T09:10:22.570Z,15.7
2019-04-03T09:11:32.311Z,14.9
2019-04-03T09:12:43.192Z,15.1
2019-04-03T09:13:54.794Z,15.3
2019-04-03T09:15:02.626Z,15.6
2019-04-03T09:16:12.202Z,16.6
2019-04-03T09:17:22.130Z,17.3
2019-04-03T09:18:31.873Z,16.1
2019-04-03T09:19:42.233Z,15.7
2019-04-03T09:20:51.927Z,16.2
2019-04-03T09:22:01.157Z,16.4
2019-04-03T09:23:10.413Z,16.7
2019-04-03T09:24:20.182Z,16.2
2019-04-03T09:25:31.554Z,16.2
2019-04-03T09:26:39.961Z,16.1
2019-04-03T09:28:59.286Z,16.4
2019-04-03T09:30:08.679Z,16.9
2019-04-03T09:31:19.492Z,16.7
2019-04-03T09:32:28.122Z,17.2
2019-04-03T09:33:37.853Z,16.8
2019-04-03T09:34:47.556Z,16.4
2019-04-03T09:35:58.832Z,16.5
2019-04-03T09:37:07.812Z,17
2019-04-03T09:38:16.716Z,16.1
2019-04-03T09:39:26.615Z,16.5
2019-04-03T09:40:36.490Z,17.4
2019-04-03T09:41:45.944Z,18.5
2019-04-03T09:42:55.799Z,17.8
2019-04-03T09:44:05.640Z,18.2
2019-04-03T09:45:15.134Z,16.3
2019-04-03T09:46:24.841Z,16.1
2019-04-03T09:47:34.918Z,16.9
2019-04-03T09:48:44.527Z,18.7
2019-04-03T09:49:54.347Z,16.9
2019-04-03T09:51:03.736Z,17
2019-04-03T09:52:13.452Z,16.8
2019-04-03T09:53:23.905Z,17
2019-04-03T09:54:32.919Z,17.2
2019-04-03T09:55:42.726Z,16.7
2019-04-03T09:56:57.715Z,17.2
2019-04-03T09:58:03.169Z,16.7
2019-04-03T09:59:12.279Z,17.6
2019-04-03T10:00:21.665Z,17.4
2019-04-03T10:01:31.268Z,17.2
2019-04-03T10:02:41.189Z,17.9
2019-04-03T10:03:53.391Z,17.3
2019-04-03T10:06:10.185Z,16.4
2019-04-03T10:07:19.937Z,16.6
2019-04-03T10:08:29.610Z,16.2
2019-04-03T10:09:39.668Z,16.1
2019-04-03T10:10:49.102Z,17.3
2019-04-03T10:11:58.821Z,16.5
2019-04-03T10:14:18.438Z,18.1
2019-04-03T10:15:29.002Z,16.6
2019-04-03T10:16:37.556Z,17.5
2019-04-03T10:17:47.531Z,16.9
2019-04-03T10:18:57.018Z,16.8
2019-04-03T10:20:06.911Z,16.5
2019-04-03T10:21:17.747Z,17.1
2019-04-03T10:22:26.352Z,17.1
2019-04-03T10:23:36.485Z,16.9
2019-04-03T10:24:45.493Z,17.6
2019-04-03T10:25:55.223Z,18.7
2019-04-03T10:27:04.948Z,18.9
2019-04-03T10:28:15.272Z,18
2019-04-03T10:29:24.297Z,18
2019-04-03T10:30:34.029Z,18.6
2019-04-03T10:31:43.737Z,18.1
2019-04-03T10:32:53.594Z,18.5
2019-04-03T10:34:04.003Z,17.4
2019-04-03T10:35:13.030Z,18.2
2019-04-03T10:36:22.553Z,17.5
2019-04-03T10:37:32.301Z,16.9
2019-04-03T10:38:42.826Z,16.2
2019-04-03T10:39:52.700Z,17.2
2019-04-03T10:41:01.435Z,17.8
2019-04-03T10:42:11.276Z,17.9
2019-04-03T10:43:21.023Z,17.6
2019-04-03T10:44:30.569Z,17.1
2019-04-03T10:45:40.259Z,17.6
2019-04-03T10:46:50.390Z,17.9
2019-04-03T10:47:59.564Z,18.1
2019-04-03T10:49:09.481Z,18.3
2019-04-03T10:51:31.092Z,17.4
2019-04-03T10:52:38.454Z,17.2
2019-04-03T10:53:48.885Z,18.3
2019-04-03T10:54:57.882Z,19.1
2019-04-03T10:56:07.926Z,19.4
2019-04-03T10:57:17.460Z,19.8
2019-04-03T10:58:26.969Z,19.2
2019-04-03T10:59:36.931Z,18.8
2019-04-03T11:00:46.323Z,18.6
2019-04-03T11:01:56.412Z,18.6
2019-04-03T11:03:06.252Z,19.1
2019-04-03T11:06:36.589Z,17.6
2019-04-03T11:07:44.787Z,17.9
2019-04-03T11:08:54.433Z,18
2019-04-03T11:10:04.448Z,18.3
2019-04-03T11:11:13.943Z,18.2
2019-04-03T11:12:23.565Z,18
2019-04-03T11:13:34.256Z,18.6
2019-04-03T11:14:43.522Z,18.7
2019-04-03T11:15:52.897Z,18.8
2019-04-03T11:17:02.765Z,18.9
2019-04-03T11:18:12.159Z,19.9
2019-04-03T11:19:22.293Z,19.5
2019-04-03T11:20:31.757Z,19.5
2019-04-03T11:21:43.178Z,19.1
2019-04-03T11:23:03.935Z,18.8
2019-04-03T11:24:01.288Z,19.9
2019-04-03T11:25:13.338Z,20.2
2019-04-03T11:26:23.779Z,19.8
2019-04-03T11:27:41.710Z,18.2
2019-04-03T11:28:40.223Z,18.5
2019-04-03T11:29:49.762Z,18.1
2019-04-03T11:31:00.532Z,18.7
2019-04-03T11:32:09.911Z,18.7
2019-04-03T11:33:19.127Z,19
2019-04-03T11:34:28.946Z,19.9
2019-04-03T11:35:38.720Z,19
2019-04-03T11:36:49.889Z,18.8
2019-04-03T11:37:58.034Z,20.6
2019-04-03T11:39:12.211Z,21.5
2019-04-03T11:40:18.655Z,20.8
2019-04-03T11:41:27.540Z,20
2019-04-03T11:42:37.316Z,19.7
2019-04-03T11:43:46.945Z,20.1
2019-04-03T11:44:56.603Z,19.1
2019-04-03T11:46:06.550Z,20
2019-04-03T11:47:16.164Z,20
2019-04-03T11:48:27.158Z,19.7
2019-04-03T11:49:35.743Z,19.6
2019-04-03T11:50:45.652Z,19.8
2019-04-03T11:51:55.356Z,20.5
2019-04-03T11:53:07.199Z,19.2
2019-04-03T11:54:14.993Z,19.1
2019-04-03T11:55:24.662Z,19.2
2019-04-03T11:56:34.757Z,18.4
2019-04-03T11:57:44.238Z,18.9
2019-04-03T11:58:54.267Z,18.9
2019-04-03T12:00:03.811Z,19.2
2019-04-03T12:01:15.870Z,18.8
2019-04-03T12:02:23.291Z,18.7
2019-04-03T12:03:33.135Z,18.8
2019-04-03T12:04:44.169Z,18.6
2019-04-03T12:05:52.529Z,18.8
2019-04-03T12:07:02.308Z,19.2
2019-04-03T12:08:12.988Z,19.4
2019-04-03T12:09:21.827Z,19.5
2019-04-03T12:10:32.766Z,19.2
2019-04-03T12:11:41.294Z,19.3
2019-04-03T12:12:51.345Z,18.9
2019-04-03T12:14:00.764Z,18.9
2019-04-03T12:15:10.861Z,18.5
2019-04-03T12:16:20.665Z,18.7
2019-04-03T12:17:30.610Z,18.8
2019-04-03T12:18:39.697Z,18.9
2019-04-03T12:19:49.408Z,18.9
2019-04-03T12:20:59.130Z,18.6
2019-04-03T12:22:08.963Z,18.6
2019-04-03T12:23:18.582Z,19.2
2019-04-03T12:24:28.407Z,18.7
2019-04-03T12:25:38.955Z,18.8
2019-04-03T12:26:48.197Z,19.4
2019-04-03T12:27:57.490Z,19.7
2019-04-03T12:29:08.061Z,19.6
2019-04-03T12:30:17.330Z,19.8
2019-04-03T12:31:26.709Z,18.9
2019-04-03T12:32:39.761Z,18.9
2019-04-03T12:33:53.097Z,19.3
2019-04-03T12:34:55.869Z,19.1
2019-04-03T12:36:06.778Z,19
2019-04-03T12:37:16.057Z,19.2
2019-04-03T12:38:24.957Z,19.2
2019-04-03T12:39:34.717Z,19
2019-04-03T12:40:44.433Z,19.1
2019-04-03T12:41:54.198Z,19.3
2019-04-03T12:43:03.787Z,19.6
2019-04-03T12:44:13.505Z,20.2
2019-04-03T12:45:25.625Z,20.1
2019-04-03T12:46:33.691Z,19.6
2019-04-03T12:47:44.054Z,19.2
2019-04-03T12:48:52.332Z,18.8
2019-04-03T12:50:02.146Z,18.8
2019-04-03T12:51:12.172Z,18.9
2019-04-03T12:52:21.426Z,18.9
2019-04-03T12:53:31.256Z,19.1
2019-04-03T12:55:50.586Z,18.9
2019-04-03T12:58:09.991Z,19.1
2019-04-03T12:59:20.398Z,18.8
2019-04-03T13:00:29.364Z,19
2019-04-03T13:01:39.002Z,18.9
2019-04-03T13:02:50.043Z,18.8
2019-04-03T13:03:58.547Z,18.8
2019-04-03T13:05:08.057Z,19.2
2019-04-03T13:06:18.006Z,19.2
2019-04-03T13:07:27.457Z,18.8
2019-04-03T13:08:37.365Z,19.2
2019-04-03T13:09:46.969Z,19
2019-04-03T13:10:56.476Z,19.2
2019-04-03T13:12:06.418Z,19.1
2019-04-03T13:13:16.056Z,18.9
2019-04-03T13:14:26.821Z,19.5
2019-04-03T13:15:37.049Z,19.2
2019-04-03T13:16:46.510Z,19
2019-04-03T13:17:54.619Z,19.1
2019-04-03T13:19:04.688Z,18.8
2019-04-03T13:20:14.387Z,19.1
2019-04-03T13:21:23.905Z,19.7
2019-04-03T13:22:33.405Z,19.6
2019-04-03T13:23:45.706Z,19.3
2019-04-03T13:24:53.180Z,19.4
2019-04-03T13:26:02.500Z,19.3
2019-04-03T13:27:12.342Z,19.2
2019-04-03T13:28:21.998Z,19.4
2019-04-03T13:29:31.731Z,19.1
2019-04-03T13:30:43.247Z,19.2
2019-04-03T13:31:51.054Z,19.3
2019-04-03T13:33:04.999Z,19.3
2019-04-03T13:34:11.477Z,18.9
2019-04-03T13:35:20.084Z,18.9
2019-04-03T13:36:29.903Z,18.8
2019-04-03T13:37:39.741Z,18.7
2019-04-03T13:38:51.195Z,18.7
2019-04-03T13:40:00.470Z,18.8
2019-04-03T13:41:10.172Z,18.9
2019-04-03T13:42:18.302Z,18.8
2019-04-03T13:43:29.322Z,18.6
2019-04-03T13:44:38.907Z,18.7
2019-04-03T13:45:48.363Z,18.8
2019-04-03T13:46:58.373Z,18.9
2019-04-03T13:48:07.874Z,18.9
2019-04-03T13:49:18.474Z,18.7
2019-04-03T13:50:27.097Z,18.8
2019-04-03T13:51:37.374Z,18.7
2019-04-03T13:52:49.161Z,18.5
2019-04-03T13:53:57.462Z,18.6
2019-04-03T13:55:06.906Z,18.7
2019-04-03T13:56:16.550Z,18.5
2019-04-03T13:57:26.308Z,18.6
2019-04-03T13:58:36.159Z,18.9
2019-04-03T13:59:46.067Z,19
2019-04-03T14:01:00.346Z,19.3
2019-04-03T14:02:06.440Z,18.9
2019-04-03T14:03:18.055Z,19.2
2019-04-03T14:04:25.718Z,19.1
2019-04-03T14:05:35.288Z,19
2019-04-03T14:06:48.467Z,19
2019-04-03T14:07:55.159Z,18.9
2019-04-03T14:09:04.464Z,18.6
2019-04-03T14:10:14.316Z,18.6
2019-04-03T14:11:24.315Z,18.6
2019-04-03T14:12:36.471Z,18.7
2019-04-03T14:13:44.281Z,19.1
2019-04-03T14:14:53.513Z,19.1
2019-04-03T14:16:02.944Z,19
2019-04-03T14:17:13.812Z,18.9
2019-04-03T14:18:22.607Z,19.6
2019-04-03T14:19:42.099Z,20.4
2019-04-03T14:20:42.394Z,19.5
2019-04-03T14:21:51.882Z,19.6
2019-04-03T14:23:03.838Z,20.3
2019-04-03T14:24:11.199Z,20.1
2019-04-03T14:25:22.442Z,20
2019-04-03T14:26:30.814Z,19.2
2019-04-03T14:27:40.618Z,18.8
2019-04-03T14:28:50.358Z,19
2019-04-03T14:30:00.071Z,19.1
2019-04-03T14:31:09.924Z,19
2019-04-03T14:32:20.637Z,19.2
2019-04-03T14:33:41.522Z,19.5
2019-04-03T14:34:40.082Z,19.2
2019-04-03T14:35:52.481Z,19.4
2019-04-03T14:36:59.278Z,19.2
2019-04-03T14:38:11.571Z,19.5
2019-04-03T14:39:18.696Z,19.7
2019-04-03T14:40:28.555Z,20.3
2019-04-03T14:41:38.522Z,19.1
2019-04-03T14:42:48.603Z,19.4
2019-04-03T14:43:58.557Z,19.5
2019-04-03T14:45:08.081Z,19.4
2019-04-03T14:46:18.593Z,19.4
2019-04-03T14:47:28.347Z,19.4
2019-04-03T14:48:37.655Z,19.1
2019-04-03T14:49:47.546Z,19.3
2019-04-03T14:50:57.664Z,19
2019-04-03T14:52:07.502Z,19
2019-04-03T14:53:17.799Z,19.1
2019-04-03T14:55:46.569Z,19.4
2019-04-03T14:56:46.951Z,18.9
2019-04-03T14:57:56.512Z,19.3
2019-04-03T14:59:06.392Z,19.7
2019-04-03T15:00:25.569Z,19.9
2019-04-03T15:01:26.077Z,19.7
2019-04-03T15:02:35.718Z,19.7
2019-04-03T15:03:45.666Z,20.1
2019-04-03T15:04:55.442Z,19.1
2019-04-03T15:06:05.181Z,19.1
2019-04-03T15:07:15.748Z,19
2019-04-03T15:08:24.711Z,19.1
2019-04-03T15:09:34.482Z,19
2019-04-03T15:10:44.305Z,18.9
2019-04-03T15:11:54.009Z,18.9
2019-04-03T15:13:03.862Z,19
2019-04-03T15:14:13.600Z,19.1
2019-04-03T15:15:24.751Z,19.2
2019-04-03T15:16:33.322Z,19.3
2019-04-03T15:17:43.007Z,19.4
2019-04-03T15:18:52.815Z,19.2
2019-04-03T15:20:02.585Z,19
2019-04-03T15:21:12.379Z,19.3
2019-04-03T15:22:22.408Z,19.4
2019-04-03T15:23:32.060Z,19.3
2019-04-03T15:24:43.323Z,19.2
2019-04-03T15:25:52.400Z,19
2019-04-03T15:27:00.951Z,18.8
2019-04-03T15:28:10.738Z,18.8
2019-04-03T15:30:30.278Z,18.9
2019-04-03T15:31:40.238Z,18.8
2019-04-03T15:32:51.405Z,19.2
2019-04-03T15:33:59.497Z,19.1
2019-04-03T15:35:09.242Z,19
2019-04-03T15:36:19.358Z,19
2019-04-03T15:37:28.902Z,18.9
2019-04-03T15:38:38.315Z,18.8
2019-04-03T15:39:53.151Z,19.1
2019-04-03T15:40:58.657Z,19
2019-04-03T15:43:17.375Z,18.8
2019-04-03T15:45:36.864Z,19.2
2019-04-03T15:46:46.494Z,19
2019-04-03T15:47:57.517Z,18.9
2019-04-03T15:49:06.287Z,19.1
2019-04-03T15:50:16.241Z,19.1
2019-04-03T15:51:25.528Z,19
2019-04-03T15:52:35.335Z,19.1
2019-04-03T15:53:45.107Z,19.2
2019-04-03T15:54:54.775Z,19.2
2019-04-03T15:56:04.643Z,19
2019-04-03T15:57:14.383Z,19
2019-04-03T15:58:25.612Z,19.2